Time;durP1;ratioP1;P1;durP2;ratioP2;P2;SDS_P1;SDS_P2;PMS_P1;PMS_P2;Temp;Humidity;BMP_temperature;BMP_pressure;BME280_temperature;BME280_humidity;BME280_pressure;Samples;Min_cycle;Max_cycle;Signal;HPM_P1;HPM_P2
2024/02/11 00:01:08;;;;;;;15.45;12.20;;;11.20;99.90;;;;;;5007861;28;20737;-76
2024/02/11 00:03:38;;;;;;;17.60;13.77;;;11.20;99.90;;;;;;4990245;28;20499;-76
2024/02/11 00:06:06;;;;;;;15.88;12.13;;;11.20;99.90;;;;;;5010428;28;20018;-76
2024/02/11 00:08:32;;;;;;;16.38;12.63;;;11.20;99.90;;;;;;5008661;28;20600;-76
2024/02/11 00:10:58;;;;;;;15.60;12.40;;;11.20;99.90;;;;;;5007415;28;20563;-75
2024/02/11 00:13:23;;;;;;;16.08;11.60;;;11.20;99.90;;;;;;5007913;28;20072;-77
2024/02/11 00:15:49;;;;;;;15.52;12.52;;;11.20;99.90;;;;;;5007110;28;20104;-76
2024/02/11 00:18:17;;;;;;;19.17;12.93;;;11.20;99.90;;;;;;5007904;28;20068;-76
2024/02/11 00:20:43;;;;;;;17.58;13.80;;;11.20;99.90;;;;;;5006819;28;20052;-76
2024/02/11 00:23:09;;;;;;;22.75;14.95;;;11.20;99.90;;;;;;5007682;28;20014;-75
2024/02/11 00:25:34;;;;;;;20.35;14.27;;;11.20;99.90;;;;;;5007043;28;20022;-76
2024/02/11 00:28:00;;;;;;;21.20;15.38;;;11.20;99.90;;;;;;4989860;28;20040;-76
2024/02/11 00:30:26;;;;;;;18.25;14.18;;;11.20;99.90;;;;;;5007598;28;20123;-75
2024/02/11 00:32:58;;;;;;;19.20;14.57;;;11.10;99.90;;;;;;5007495;28;20030;-76
2024/02/11 00:35:24;;;;;;;19.42;14.48;;;11.20;99.90;;;;;;5009006;28;20495;-75
2024/02/11 00:37:50;;;;;;;18.20;13.88;;;11.10;99.90;;;;;;5011915;28;20037;-76
2024/02/11 00:40:16;;;;;;;19.63;14.60;;;11.10;99.90;;;;;;5008442;28;20109;-76
2024/02/11 00:42:44;;;;;;;18.05;14.63;;;11.10;99.90;;;;;;5006859;28;20022;-76
2024/02/11 00:45:12;;;;;;;20.17;15.05;;;11.10;99.90;;;;;;5007118;28;20018;-77
2024/02/11 00:47:41;;;;;;;14.15;11.88;;;11.10;99.90;;;;;;5006893;28;20112;-76
2024/02/11 00:50:11;;;;;;;17.98;14.65;;;11.10;99.90;;;;;;5006687;28;20052;-76
2024/02/11 00:52:44;;;;;;;19.77;14.40;;;11.10;99.90;;;;;;5007147;28;20499;-76
2024/02/11 00:55:14;;;;;;;18.23;13.55;;;11.10;99.90;;;;;;5007252;28;20030;-76
2024/02/11 00:57:41;;;;;;;17.65;14.40;;;11.10;99.90;;;;;;5006936;28;20088;-76
2024/02/11 01:00:11;;;;;;;18.30;13.85;;;11.10;99.90;;;;;;5007082;28;20053;-76
2024/02/11 01:02:37;;;;;;;19.30;13.77;;;11.00;99.90;;;;;;4989290;28;20022;-76
2024/02/11 01:05:04;;;;;;;16.45;12.90;;;11.00;99.90;;;;;;5007199;28;20041;-76
2024/02/11 01:07:30;;;;;;;20.02;14.60;;;11.00;99.90;;;;;;5006292;28;20245;-76
2024/02/11 01:09:56;;;;;;;19.38;14.32;;;11.00;99.90;;;;;;4989546;28;20491;-77
2024/02/11 01:12:23;;;;;;;17.77;12.57;;;11.00;99.90;;;;;;5006718;28;20034;-76
2024/02/11 01:14:49;;;;;;;17.95;13.65;;;11.00;99.90;;;;;;5006790;28;20105;-76
2024/02/11 01:17:15;;;;;;;17.33;12.65;;;11.00;99.90;;;;;;5006552;28;20144;-76
2024/02/11 01:19:43;;;;;;;19.80;13.63;;;11.00;99.90;;;;;;4975354;28;20515;-76
2024/02/11 01:22:09;;;;;;;16.85;14.13;;;11.00;99.90;;;;;;5006634;28;20056;-76
2024/02/11 01:24:34;;;;;;;19.67;14.93;;;11.00;99.90;;;;;;5006571;28;20048;-76
2024/02/11 01:27:00;;;;;;;17.75;13.35;;;11.00;99.90;;;;;;5006070;28;20026;-76
2024/02/11 01:29:26;;;;;;;21.85;14.38;;;11.00;99.90;;;;;;5006884;28;20480;-76
2024/02/11 01:31:51;;;;;;;19.65;13.88;;;11.00;99.90;;;;;;4988189;28;20022;-76
2024/02/11 01:34:17;;;;;;;20.67;14.75;;;11.00;99.90;;;;;;4988780;28;20025;-76
2024/02/11 01:36:45;;;;;;;18.70;14.38;;;10.90;99.90;;;;;;5005793;28;20108;-76
2024/02/11 01:39:11;;;;;;;16.15;13.38;;;10.90;99.90;;;;;;5006376;28;20733;-76
2024/02/11 01:41:37;;;;;;;19.80;14.82;;;11.00;99.90;;;;;;5005855;28;20028;-76
2024/02/11 01:44:03;;;;;;;19.83;15.40;;;10.90;99.90;;;;;;5007357;28;20059;-76
2024/02/11 01:46:29;;;;;;;21.25;14.63;;;10.90;99.90;;;;;;5010508;28;20236;-76
2024/02/11 01:49:02;;;;;;;14.60;12.20;;;10.90;99.90;;;;;;5007765;28;20087;-76
2024/02/11 01:51:29;;;;;;;17.40;14.05;;;10.90;99.90;;;;;;5006151;28;20064;-76
2024/02/11 01:53:56;;;;;;;17.08;12.07;;;10.90;99.90;;;;;;5006348;28;20022;-76
2024/02/11 01:56:24;;;;;;;20.90;16.23;;;10.90;99.90;;;;;;5006264;28;20063;-76
2024/02/11 01:58:50;;;;;;;23.77;16.25;;;10.90;99.90;;;;;;4988078;28;20053;-76
2024/02/11 02:01:21;;;;;;;17.83;14.10;;;10.90;99.90;;;;;;5008758;28;20028;-76
2024/02/11 02:03:47;;;;;;;20.80;15.05;;;10.90;99.90;;;;;;5012694;28;20025;-76
2024/02/11 02:06:15;;;;;;;20.58;14.93;;;10.90;99.90;;;;;;4994775;28;20032;-76
2024/02/11 02:08:41;;;;;;;18.40;14.95;;;10.80;99.90;;;;;;5012831;28;20034;-76
2024/02/11 02:11:08;;;;;;;17.90;14.13;;;10.90;99.90;;;;;;4994491;28;20499;-76
2024/02/11 02:13:34;;;;;;;19.20;15.13;;;10.90;99.90;;;;;;5012585;28;20100;-76
2024/02/11 02:16:00;;;;;;;18.58;14.48;;;10.90;99.90;;;;;;5014633;28;20463;-76
2024/02/11 02:18:26;;;;;;;18.15;14.70;;;10.80;99.90;;;;;;5017309;28;20101;-76
2024/02/11 02:20:52;;;;;;;20.58;14.63;;;10.80;99.90;;;;;;5012533;28;20026;-76
2024/02/11 02:23:17;;;;;;;15.65;13.38;;;10.90;99.90;;;;;;4995237;28;20021;-76
2024/02/11 02:25:43;;;;;;;18.23;14.57;;;10.80;99.90;;;;;;5011827;28;20133;-76
2024/02/11 02:28:09;;;;;;;21.50;15.07;;;10.80;99.90;;;;;;5012294;28;20105;-76
2024/02/11 02:30:34;;;;;;;18.77;15.23;;;10.80;99.90;;;;;;5012145;28;20084;-77
2024/02/11 02:33:00;;;;;;;18.05;15.23;;;10.80;99.90;;;;;;5012481;28;20018;-76
2024/02/11 02:35:26;;;;;;;22.88;14.60;;;10.80;99.90;;;;;;5012616;28;20475;-76
2024/02/11 02:37:52;;;;;;;21.25;15.32;;;10.80;99.90;;;;;;5011519;28;20481;-76
2024/02/11 02:40:24;;;;;;;17.98;14.40;;;10.80;99.90;;;;;;5012496;28;20045;-76
2024/02/11 02:42:50;;;;;;;22.10;15.45;;;10.80;99.90;;;;;;5011841;28;20113;-76
2024/02/11 02:45:16;;;;;;;17.83;15.07;;;10.80;99.90;;;;;;5012525;28;20022;-75
2024/02/11 02:47:42;;;;;;;20.65;15.07;;;10.80;99.90;;;;;;5011648;28;20018;-76
2024/02/11 02:50:08;;;;;;;20.15;14.80;;;10.80;99.90;;;;;;5012050;28;20036;-76
2024/02/11 02:52:36;;;;;;;18.10;14.65;;;10.80;99.90;;;;;;5015548;28;20025;-76
2024/02/11 02:55:05;;;;;;;19.85;14.80;;;10.70;99.90;;;;;;5012119;28;20034;-76
2024/02/11 02:57:33;;;;;;;20.38;15.43;;;10.70;99.90;;;;;;5011207;28;20029;-76
2024/02/11 03:00:00;;;;;;;18.50;15.30;;;10.70;99.90;;;;;;4994294;28;20057;-76
2024/02/11 03:02:28;;;;;;;18.65;14.95;;;10.80;99.90;;;;;;5011799;28;20391;-76
2024/02/11 03:04:54;;;;;;;22.08;16.00;;;10.70;99.90;;;;;;4994585;28;20117;-76
2024/02/11 03:07:20;;;;;;;20.90;15.88;;;10.70;99.90;;;;;;5011799;28;20037;-76
2024/02/11 03:09:45;;;;;;;19.25;14.90;;;10.70;99.90;;;;;;5012264;28;20022;-76
2024/02/11 03:12:11;;;;;;;16.73;14.48;;;10.70;99.90;;;;;;5010018;28;20042;-76
2024/02/11 03:14:36;;;;;;;20.50;15.27;;;10.70;99.90;;;;;;5008969;28;20022;-76
2024/02/11 03:17:02;;;;;;;18.17;14.55;;;10.70;99.90;;;;;;5008739;28;20407;-75
2024/02/11 03:19:28;;;;;;;20.95;15.43;;;10.70;99.90;;;;;;5008742;28;20105;-75
2024/02/11 03:21:53;;;;;;;20.42;15.15;;;10.70;99.90;;;;;;5009302;28;20018;-76
2024/02/11 03:24:19;;;;;;;18.23;14.60;;;10.70;99.90;;;;;;4995787;28;20120;-76
2024/02/11 03:26:45;;;;;;;20.08;15.38;;;10.70;99.90;;;;;;5010913;28;20018;-76
2024/02/11 03:29:10;;;;;;;19.10;15.07;;;10.70;99.90;;;;;;5008433;28;20025;-76
2024/02/11 03:31:36;;;;;;;19.90;15.77;;;10.70;99.90;;;;;;4993997;28;20034;-76
2024/02/11 03:34:04;;;;;;;18.52;15.13;;;10.70;99.90;;;;;;5008984;28;20033;-76
2024/02/11 03:36:30;;;;;;;22.83;16.23;;;10.70;99.90;;;;;;5007745;28;20403;-76
2024/02/11 03:38:56;;;;;;;18.13;14.55;;;10.70;99.90;;;;;;5008536;28;20029;-75
2024/02/11 03:41:25;;;;;;;21.75;16.45;;;10.70;99.90;;;;;;4990490;28;20450;-76
2024/02/11 03:43:51;;;;;;;20.08;15.93;;;10.70;99.90;;;;;;4990614;28;20025;-76
2024/02/11 03:46:16;;;;;;;21.85;15.90;;;10.60;99.90;;;;;;5008147;28;20028;-76
2024/02/11 03:48:42;;;;;;;18.30;14.55;;;10.60;99.90;;;;;;4990595;28;20519;-76
2024/02/11 03:51:07;;;;;;;20.25;15.82;;;10.60;99.90;;;;;;5008154;28;20030;-77
2024/02/11 03:53:37;;;;;;;20.65;16.00;;;10.60;99.90;;;;;;5009449;28;20101;-76
2024/02/11 03:56:06;;;;;;;19.40;15.15;;;10.60;99.90;;;;;;4994946;28;20542;-76
2024/02/11 03:58:35;;;;;;;18.80;15.25;;;10.60;99.90;;;;;;5009512;28;20029;-76
2024/02/11 04:01:01;;;;;;;20.45;16.33;;;10.60;99.90;;;;;;4994529;28;20498;-77
2024/02/11 04:03:27;;;;;;;21.00;16.02;;;10.60;99.90;;;;;;5008050;28;20188;-76
2024/02/11 04:05:55;;;;;;;19.25;15.60;;;10.50;99.90;;;;;;5007784;28;20049;-75
2024/02/11 04:08:21;;;;;;;21.48;16.60;;;10.50;99.90;;;;;;5008266;28;20088;-77
2024/02/11 04:10:52;;;;;;;18.98;15.40;;;10.60;99.90;;;;;;4990051;28;20466;-76
2024/02/11 04:13:27;;;;;;;23.23;16.13;;;10.60;99.90;;;;;;4990162;28;20026;-76
2024/02/11 04:15:56;;;;;;;21.05;16.50;;;10.50;99.90;;;;;;5007328;28;20018;-78
2024/02/11 04:18:25;;;;;;;20.65;15.35;;;10.50;99.90;;;;;;5007978;28;20021;-76
2024/02/11 04:20:54;;;;;;;18.58;15.48;;;10.50;99.90;;;;;;4989891;28;20052;-77
2024/02/11 04:23:20;;;;;;;21.35;17.00;;;10.50;99.90;;;;;;5007740;28;20049;-76
2024/02/11 04:25:46;;;;;;;24.48;18.08;;;10.50;99.90;;;;;;5007529;28;20053;-76
2024/02/11 04:28:12;;;;;;;21.92;15.75;;;10.50;99.90;;;;;;5008363;28;20510;-76
2024/02/11 04:30:42;;;;;;;20.40;16.30;;;10.50;99.90;;;;;;5012173;28;20148;-76
2024/02/11 04:33:08;;;;;;;22.23;16.50;;;10.50;99.90;;;;;;4993262;28;20022;-76
2024/02/11 04:35:35;;;;;;;22.63;17.95;;;10.50;99.90;;;;;;5008553;28;20053;-76
2024/02/11 04:38:07;;;;;;;21.73;16.75;;;10.50;99.90;;;;;;4989961;28;20084;-76
2024/02/11 04:40:34;;;;;;;23.17;16.02;;;10.50;99.90;;;;;;5008011;28;20539;-76
2024/02/11 04:43:01;;;;;;;21.13;16.58;;;10.50;99.90;;;;;;4989904;28;20025;-77
2024/02/11 04:45:26;;;;;;;19.75;16.23;;;10.50;99.90;;;;;;4990043;28;20018;-76
2024/02/11 04:48:12;;;;;;;19.80;16.45;;;10.50;99.90;;;;;;5006928;28;20021;-77
2024/02/11 04:50:38;;;;;;;18.92;15.57;;;10.50;99.90;;;;;;4996636;28;20038;-76
2024/02/11 04:53:07;;;;;;;22.27;16.60;;;10.40;99.90;;;;;;5006932;28;20029;-76
2024/02/11 04:55:39;;;;;;;19.70;15.23;;;10.40;99.90;;;;;;5006932;28;20025;-76
2024/02/11 04:58:19;;;;;;;22.33;17.15;;;10.40;99.90;;;;;;5007250;28;20026;-76
2024/02/11 05:00:51;;;;;;;22.42;16.20;;;10.40;99.90;;;;;;4989156;28;20503;-76
2024/02/11 05:03:19;;;;;;;19.75;15.95;;;10.50;99.90;;;;;;4991620;28;20026;-75
2024/02/11 05:05:46;;;;;;;22.08;16.73;;;10.40;99.90;;;;;;5008229;28;20022;-76
2024/02/11 05:08:16;;;;;;;22.90;16.98;;;10.50;99.90;;;;;;5007120;28;20025;-76
2024/02/11 05:10:44;;;;;;;22.08;16.67;;;10.40;99.90;;;;;;5007380;28;20109;-76
2024/02/11 05:13:14;;;;;;;23.08;17.15;;;10.40;99.90;;;;;;5006988;28;20101;-76
2024/02/11 05:15:42;;;;;;;28.20;18.35;;;10.50;99.90;;;;;;5006982;28;20026;-77
2024/02/11 05:18:15;;;;;;;20.48;17.08;;;10.50;99.90;;;;;;4988975;28;20028;-75
2024/02/11 05:20:42;;;;;;;21.67;17.27;;;10.50;99.90;;;;;;5006864;28;20026;-76
2024/02/11 05:23:11;;;;;;;24.05;18.65;;;10.50;99.90;;;;;;5007111;28;20101;-76
2024/02/11 05:25:39;;;;;;;27.13;18.85;;;10.50;99.90;;;;;;5006899;28;20108;-76
2024/02/11 05:28:09;;;;;;;22.58;17.88;;;10.50;99.90;;;;;;5006761;28;20050;-75
2024/02/11 05:30:42;;;;;;;23.02;18.45;;;10.40;99.90;;;;;;5005122;28;20037;-76
2024/02/11 05:33:09;;;;;;;19.13;16.52;;;10.40;99.90;;;;;;4988376;28;20026;-76
2024/02/11 05:35:37;;;;;;;25.63;18.70;;;10.40;99.90;;;;;;5010588;28;20053;-76
2024/02/11 05:38:06;;;;;;;26.60;18.90;;;10.40;99.90;;;;;;5009559;28;20095;-76
2024/02/11 05:40:41;;;;;;;24.42;18.70;;;10.40;99.90;;;;;;5006622;28;20030;-76
2024/02/11 05:43:08;;;;;;;26.98;18.98;;;10.40;99.90;;;;;;5006089;28;20040;-76
2024/02/11 05:45:35;;;;;;;33.97;20.60;;;10.40;99.90;;;;;;5006858;28;20029;-76
2024/02/11 05:48:01;;;;;;;29.60;19.40;;;10.40;99.90;;;;;;5006169;28;20022;-77
2024/02/11 05:50:27;;;;;;;29.35;20.63;;;10.40;99.90;;;;;;5006933;28;20026;-77
2024/02/11 05:52:56;;;;;;;26.88;20.27;;;10.40;99.90;;;;;;5006108;28;20040;-76
2024/02/11 05:55:22;;;;;;;26.20;18.85;;;10.40;99.90;;;;;;5006375;28;20022;-76
2024/02/11 05:57:50;;;;;;;25.80;19.15;;;10.40;99.90;;;;;;5006050;28;20088;-76
2024/02/11 06:00:20;;;;;;;24.13;18.00;;;10.50;99.90;;;;;;5006186;28;20081;-76
2024/02/11 06:02:51;;;;;;;25.90;18.73;;;10.40;99.90;;;;;;4975328;28;20499;-76
2024/02/11 06:05:17;;;;;;;;;;;10.40;99.90;;;;;;5007027;28;20080;-75
2024/02/11 06:07:51;;;;;;;25.23;18.40;;;10.40;99.90;;;;;;4989646;28;19909;-75
2024/02/11 06:10:18;;;;;;;26.80;18.88;;;10.40;99.90;;;;;;4993265;28;20034;-75
2024/02/11 06:12:45;;;;;;;28.40;18.08;;;10.40;99.90;;;;;;5010315;28;20029;-75
2024/02/11 06:15:13;;;;;;;26.35;18.23;;;10.40;99.90;;;;;;5006241;28;20034;-75
2024/02/11 06:17:40;;;;;;;24.25;17.27;;;10.40;99.90;;;;;;5005279;28;20045;-75
2024/02/11 06:20:09;;;;;;;26.20;17.98;;;10.40;99.90;;;;;;5006115;28;20036;-76
2024/02/11 06:22:37;;;;;;;23.50;17.15;;;10.40;99.90;;;;;;5005459;28;20093;-75
2024/02/11 06:25:04;;;;;;;26.40;17.27;;;10.30;99.90;;;;;;5004816;28;20034;-75
2024/02/11 06:27:30;;;;;;;24.00;17.35;;;10.30;99.90;;;;;;5005678;28;20022;-75
2024/02/11 06:29:57;;;;;;;25.45;18.27;;;10.30;99.90;;;;;;4988338;28;20033;-75
2024/02/11 06:32:23;;;;;;;28.30;19.02;;;10.30;99.90;;;;;;5005763;28;20034;-75
2024/02/11 06:34:49;;;;;;;29.77;19.30;;;10.30;99.90;;;;;;5006017;28;20026;-75
2024/02/11 06:37:15;;;;;;;24.50;17.35;;;10.30;99.90;;;;;;4987600;28;20036;-75
2024/02/11 06:39:41;;;;;;;21.45;14.02;;;10.30;99.90;;;;;;5005721;28;20076;-76
2024/02/11 06:42:10;;;;;;;11.88;8.38;;;10.30;99.90;;;;;;5005572;28;20431;-76
2024/02/11 06:44:41;;;;;;;12.50;7.60;;;10.30;99.90;;;;;;5006123;28;20076;-76
2024/02/11 06:47:11;;;;;;;10.60;6.93;;;10.20;99.90;;;;;;5008564;28;20421;-76
2024/02/11 06:49:38;;;;;;;10.35;6.63;;;10.20;99.90;;;;;;5003744;28;20036;-75
2024/02/11 06:52:05;;;;;;;12.75;7.85;;;10.00;99.90;;;;;;5008862;28;20036;-76
2024/02/11 06:54:32;;;;;;;14.40;8.00;;;9.90;99.90;;;;;;4990976;28;20033;-77
2024/02/11 06:56:58;;;;;;;12.27;7.40;;;9.90;99.90;;;;;;5008719;28;20113;-75
2024/02/11 06:59:23;;;;;;;14.50;8.45;;;9.80;99.90;;;;;;5009144;28;20125;-74
2024/02/11 07:01:49;;;;;;;14.23;8.48;;;9.80;99.90;;;;;;5008914;28;20018;-75
2024/02/11 07:04:15;;;;;;;15.77;7.97;;;9.70;99.90;;;;;;4991408;28;20128;-74
2024/02/11 07:06:44;;;;;;;15.80;8.45;;;9.70;99.90;;;;;;5008776;28;20084;-75
2024/02/11 07:09:13;;;;;;;16.35;9.10;;;9.70;99.90;;;;;;5009125;28;20030;-75
2024/02/11 07:11:40;;;;;;;18.17;11.23;;;9.60;99.90;;;;;;5008658;28;20030;-75
2024/02/11 07:14:09;;;;;;;21.05;13.88;;;9.60;99.90;;;;;;4991412;28;20026;-75
2024/02/11 07:16:39;;;;;;;20.83;13.38;;;9.60;99.90;;;;;;5010596;28;20079;-75
2024/02/11 07:19:08;;;;;;;23.52;14.82;;;9.50;99.90;;;;;;5010990;28;20034;-75
2024/02/11 07:21:36;;;;;;;27.33;15.55;;;9.40;99.90;;;;;;4989399;28;20121;-76
2024/02/11 07:24:04;;;;;;;25.23;15.20;;;9.40;99.90;;;;;;5002703;28;20029;-75
2024/02/11 07:26:30;;;;;;;25.17;13.10;;;9.40;99.90;;;;;;4990607;28;20018;-75
2024/02/11 07:28:55;;;;;;;25.40;15.20;;;9.30;99.90;;;;;;4991206;28;20029;-75
2024/02/11 07:31:21;;;;;;;25.75;14.55;;;9.20;99.90;;;;;;5002418;28;20018;-75
2024/02/11 07:33:47;;;;;;;26.50;15.35;;;9.20;99.90;;;;;;5008009;28;20071;-75
2024/02/11 07:36:14;;;;;;;25.73;14.50;;;9.20;99.90;;;;;;4990790;28;20423;-75
2024/02/11 07:38:40;;;;;;;34.22;15.80;;;9.10;99.90;;;;;;5007982;28;20048;-75
2024/02/11 07:41:07;;;;;;;29.15;15.68;;;9.10;99.90;;;;;;5007364;28;20384;-75
2024/02/11 07:43:33;;;;;;;31.35;14.90;;;9.10;99.90;;;;;;5007979;28;20022;-75
2024/02/11 07:46:01;;;;;;;29.83;15.02;;;9.10;99.90;;;;;;5008809;28;20113;-75
2024/02/11 07:48:28;;;;;;;30.15;13.32;;;9.10;99.90;;;;;;5008968;28;20017;-76
2024/02/11 07:50:53;;;;;;;29.23;13.18;;;9.00;99.90;;;;;;5012726;28;20034;-75
2024/02/11 07:53:19;;;;;;;27.15;12.77;;;9.00;99.90;;;;;;5008343;28;20029;-75
2024/02/11 07:55:46;;;;;;;29.45;13.20;;;9.00;99.90;;;;;;5008365;28;20565;-75
2024/02/11 07:58:11;;;;;;;26.85;11.50;;;9.00;99.90;;;;;;5007522;28;20057;-75
2024/02/11 08:00:37;;;;;;;22.95;11.07;;;9.00;99.90;;;;;;5007660;28;20081;-75
2024/02/11 08:03:04;;;;;;;26.45;11.32;;;9.00;99.90;;;;;;4990415;28;20026;-76
2024/02/11 08:05:30;;;;;;;27.42;10.05;;;8.90;99.90;;;;;;5008088;28;20049;-75
2024/02/11 08:07:56;;;;;;;25.52;9.85;;;8.90;99.90;;;;;;5007799;28;20022;-76
2024/02/11 08:10:22;;;;;;;20.38;9.02;;;8.80;99.90;;;;;;5008653;28;20463;-75
2024/02/11 08:12:49;;;;;;;21.45;8.98;;;8.80;99.90;;;;;;5007526;28;20026;-75
2024/02/11 08:15:15;;;;;;;21.98;8.68;;;8.80;99.90;;;;;;4990192;28;20053;-75
2024/02/11 08:17:41;;;;;;;24.35;8.68;;;8.80;99.90;;;;;;5007391;28;20053;-76
2024/02/11 08:20:12;;;;;;;25.15;8.70;;;8.70;99.90;;;;;;5007755;28;20018;-75
2024/02/11 08:22:38;;;;;;;23.98;8.50;;;8.80;99.90;;;;;;5006994;28;20081;-75
2024/02/11 08:25:07;;;;;;;19.70;8.68;;;8.80;99.90;;;;;;5008516;28;20487;-75
2024/02/11 08:27:37;;;;;;;21.00;8.55;;;8.80;99.90;;;;;;5008274;28;20642;-75
2024/02/11 08:30:05;;;;;;;22.75;9.85;;;8.80;99.90;;;;;;5006837;28;20025;-75
2024/02/11 08:32:31;;;;;;;21.40;9.35;;;8.80;99.90;;;;;;5007124;28;20062;-75
2024/02/11 08:34:56;;;;;;;21.08;9.35;;;8.80;99.90;;;;;;5007664;28;20542;-75
2024/02/11 08:37:22;;;;;;;20.88;9.30;;;8.80;99.90;;;;;;5007929;28;20029;-75
2024/02/11 08:39:48;;;;;;;26.08;9.48;;;8.80;99.90;;;;;;4986812;28;20030;-75
2024/02/11 08:42:14;;;;;;;23.90;10.25;;;8.80;99.90;;;;;;5006711;28;20371;-75
2024/02/11 08:44:40;;;;;;;23.58;10.98;;;8.80;99.90;;;;;;5004334;28;20026;-75
2024/02/11 08:47:08;;;;;;;27.58;10.93;;;8.90;99.90;;;;;;5006676;28;20022;-75
2024/02/11 08:49:34;;;;;;;22.77;10.23;;;8.90;99.90;;;;;;4988416;28;20030;-75
2024/02/11 08:52:00;;;;;;;29.33;12.93;;;8.90;99.90;;;;;;4983557;28;20029;-75
2024/02/11 08:54:26;;;;;;;30.90;12.52;;;8.90;99.90;;;;;;4995601;28;20085;-75
2024/02/11 08:56:52;;;;;;;30.13;13.77;;;8.90;99.90;;;;;;5002894;28;20061;-75
2024/02/11 08:59:18;;;;;;;28.15;13.55;;;8.90;99.90;;;;;;4994911;28;20491;-76
2024/02/11 09:01:52;;;;;;;26.77;13.90;;;9.00;99.90;;;;;;5004850;28;20478;-76
2024/02/11 09:04:19;;;;;;;31.48;14.82;;;8.90;99.90;;;;;;4987512;28;20075;-76
2024/02/11 09:06:46;;;;;;;29.13;15.80;;;9.00;99.90;;;;;;4988883;28;20108;-76
2024/02/11 09:09:12;;;;;;;32.58;15.90;;;9.00;99.90;;;;;;4988325;28;20030;-75
2024/02/11 09:11:38;;;;;;;31.15;16.10;;;9.00;99.90;;;;;;5001662;28;20507;-75
2024/02/11 09:14:03;;;;;;;28.98;15.65;;;9.00;99.90;;;;;;4987487;28;20053;-75
2024/02/11 09:16:30;;;;;;;31.40;16.58;;;9.00;99.90;;;;;;5004025;28;20041;-75
2024/02/11 09:18:56;;;;;;;29.02;15.73;;;9.10;99.90;;;;;;5005729;28;20022;-75
2024/02/11 09:21:22;;;;;;;33.47;15.55;;;9.00;99.90;;;;;;4989068;28;20148;-76
2024/02/11 09:23:48;;;;;;;32.05;15.82;;;9.00;99.90;;;;;;5009484;28;20110;-76
2024/02/11 09:26:14;;;;;;;31.63;16.30;;;9.10;99.90;;;;;;4999251;28;20030;-75
2024/02/11 09:28:42;;;;;;;29.83;14.95;;;9.10;99.90;;;;;;5005595;28;20518;-76
2024/02/11 09:31:09;;;;;;;26.00;14.13;;;9.10;99.90;;;;;;5003960;28;20567;-76
2024/02/11 09:33:36;;;;;;;25.90;13.93;;;9.10;99.90;;;;;;4987025;28;20073;-76
2024/02/11 09:36:03;;;;;;;25.05;13.32;;;9.10;99.90;;;;;;5005618;28;20025;-76
2024/02/11 09:38:29;;;;;;;24.55;12.80;;;9.20;99.90;;;;;;4988056;28;20022;-76
2024/02/11 09:40:54;;;;;;;32.53;13.45;;;9.20;99.90;;;;;;5005823;28;20824;-75
2024/02/11 09:43:20;;;;;;;21.52;11.35;;;9.20;99.90;;;;;;4997355;28;20117;-76
2024/02/11 09:45:48;;;;;;;26.27;13.05;;;9.30;99.90;;;;;;5002578;28;20018;-76
2024/02/11 09:48:15;;;;;;;25.20;12.75;;;9.30;99.90;;;;;;5005312;28;20472;-76
2024/02/11 09:50:44;;;;;;;26.40;12.65;;;9.30;99.90;;;;;;5001649;28;20037;-75
2024/02/11 09:53:14;;;;;;;28.15;13.02;;;9.30;99.90;;;;;;5008504;28;20065;-76
2024/02/11 09:55:43;;;;;;;28.87;14.37;;;9.40;99.90;;;;;;5005784;28;20034;-76
2024/02/11 09:58:08;;;;;;;26.15;13.25;;;9.40;99.90;;;;;;4988221;28;20038;-77
2024/02/11 10:00:34;;;;;;;23.55;12.75;;;9.40;99.90;;;;;;4985227;28;20045;-77
2024/02/11 10:03:02;;;;;;;25.17;12.05;;;9.40;99.90;;;;;;4986600;28;20035;-78
2024/02/11 10:05:35;;;;;;;24.15;12.32;;;9.40;99.90;;;;;;4987086;28;20022;-78
2024/02/11 10:08:08;;;;;;;28.08;14.25;;;9.50;99.90;;;;;;4986118;28;20465;-78
2024/02/11 10:10:34;;;;;;;27.52;13.27;;;9.50;99.90;;;;;;4987059;28;20019;-78
2024/02/11 10:13:02;;;;;;;27.80;12.48;;;9.50;99.90;;;;;;4984497;28;20077;-78
2024/02/11 10:15:35;;;;;;;23.42;13.38;;;9.50;99.90;;;;;;4986573;28;20030;-77
2024/02/11 10:18:06;;;;;;;26.05;13.65;;;9.50;99.90;;;;;;4982291;28;20096;-78
2024/02/11 10:20:36;;;;;;;;;;;9.50;99.90;;;;;;4986761;28;20492;-78
2024/02/11 10:23:04;;;;;;;28.88;14.70;;;9.50;99.90;;;;;;4987363;28;19947;-78
2024/02/11 10:25:31;;;;;;;32.78;15.05;;;9.50;99.90;;;;;;4991450;28;20029;-77
2024/02/11 10:27:58;;;;;;;32.33;15.63;;;9.50;99.90;;;;;;4986506;28;20037;-77
2024/02/11 10:30:24;;;;;;;32.08;16.45;;;9.60;99.90;;;;;;4989063;28;20033;-78
2024/02/11 10:32:50;;;;;;;33.05;16.98;;;9.60;99.90;;;;;;4986553;28;20026;-78
2024/02/11 10:35:17;;;;;;;31.00;15.70;;;9.60;99.90;;;;;;4985863;28;20118;-78
2024/02/11 10:37:45;;;;;;;30.02;16.10;;;9.60;99.90;;;;;;4986702;28;20632;-78
2024/02/11 10:40:11;;;;;;;31.05;15.57;;;9.60;99.90;;;;;;4988893;28;20034;-78
2024/02/11 10:42:41;;;;;;;32.35;15.82;;;9.60;99.90;;;;;;4978117;28;20041;-77
2024/02/11 10:45:09;;;;;;;31.98;14.95;;;9.60;99.90;;;;;;4989880;28;20041;-78
2024/02/11 10:47:36;;;;;;;26.58;15.45;;;9.60;99.90;;;;;;4987403;28;20029;-78
2024/02/11 10:50:03;;;;;;;29.00;14.77;;;9.60;99.90;;;;;;4990137;28;20034;-78
2024/02/11 10:52:37;;;;;;;24.50;12.93;;;9.60;99.90;;;;;;4989515;28;20078;-77
2024/02/11 10:55:04;;;;;;;27.30;12.88;;;9.60;99.90;;;;;;4990392;28;20038;-78
2024/02/11 10:57:40;;;;;;;28.27;12.02;;;9.60;99.90;;;;;;4988956;28;20136;-78
2024/02/11 11:00:08;;;;;;;22.75;10.90;;;9.60;99.90;;;;;;5008071;28;20046;-77
2024/02/11 11:02:36;;;;;;;31.98;12.70;;;9.60;99.90;;;;;;5010662;28;20105;-78
2024/02/11 11:05:06;;;;;;;26.10;11.02;;;9.60;99.90;;;;;;5001135;28;20030;-78
2024/02/11 11:07:38;;;;;;;22.70;11.75;;;9.60;99.90;;;;;;4988599;28;20025;-80
2024/02/11 11:10:12;;;;;;;27.63;11.27;;;9.60;99.90;;;;;;5009056;28;20026;-77
2024/02/11 11:12:54;;;;;;;28.35;11.10;;;9.60;99.90;;;;;;5008091;28;20030;-78
2024/02/11 11:15:24;;;;;;;27.63;10.82;;;9.60;99.90;;;;;;5009021;28;20566;-78
2024/02/11 11:17:51;;;;;;;27.08;11.18;;;9.60;99.90;;;;;;5007914;28;20109;-78
2024/02/11 11:20:18;;;;;;;25.83;11.40;;;9.60;99.90;;;;;;5008856;28;20036;-78
2024/02/11 11:22:50;;;;;;;26.65;11.45;;;9.70;99.90;;;;;;5008254;28;20026;-79
2024/02/11 11:25:18;;;;;;;25.70;11.25;;;9.70;99.90;;;;;;4991196;28;20499;-79
2024/02/11 11:27:43;;;;;;;28.55;11.40;;;9.70;99.90;;;;;;5007994;28;20065;-78
2024/02/11 11:30:10;;;;;;;28.33;10.27;;;9.70;99.90;;;;;;4993970;28;20051;-78
2024/02/11 11:32:43;;;;;;;21.45;9.88;;;9.70;99.90;;;;;;5012862;28;20555;-78
2024/02/11 11:35:11;;;;;;;20.30;10.20;;;9.70;99.90;;;;;;4990921;28;20022;-78
2024/02/11 11:37:37;;;;;;;24.73;9.40;;;9.70;99.90;;;;;;5007757;28;20201;-78
2024/02/11 11:40:04;;;;;;;24.73;9.77;;;9.80;99.90;;;;;;5008485;28;20495;-78
2024/02/11 11:42:29;;;;;;;24.20;8.88;;;9.80;99.90;;;;;;5007554;28;20034;-78
2024/02/11 11:45:07;;;;;;;16.90;8.85;;;9.80;99.90;;;;;;5008066;28;20029;-77
2024/02/11 11:47:34;;;;;;;27.38;9.85;;;9.70;99.90;;;;;;5006822;28;20091;-77
2024/02/11 11:50:00;;;;;;;22.05;9.13;;;9.70;99.90;;;;;;4988116;28;20022;-78
2024/02/11 11:52:26;;;;;;;22.05;9.30;;;9.80;99.90;;;;;;4989695;28;20029;-78
2024/02/11 11:54:51;;;;;;;26.73;10.48;;;9.80;99.90;;;;;;5007894;28;20029;-78
2024/02/11 11:57:18;;;;;;;20.38;8.60;;;9.70;99.90;;;;;;5007851;28;20025;-78
2024/02/11 11:59:54;;;;;;;19.90;8.75;;;9.80;99.90;;;;;;5007220;28;20523;-78
2024/02/11 12:02:20;;;;;;;23.45;9.40;;;9.80;99.90;;;;;;5012240;28;20032;-79
2024/02/11 12:04:46;;;;;;;24.77;9.13;;;9.80;99.90;;;;;;5010961;28;20116;-78
2024/02/11 12:07:12;;;;;;;23.13;8.77;;;9.80;99.90;;;;;;4989814;28;20750;-78
2024/02/11 12:09:37;;;;;;;20.85;8.85;;;9.80;99.90;;;;;;5007258;28;20040;-78
2024/02/11 12:12:04;;;;;;;23.48;9.80;;;9.80;99.90;;;;;;5007747;28;20038;-78
2024/02/11 12:14:30;;;;;;;22.02;9.88;;;9.90;99.90;;;;;;5007131;28;20103;-78
2024/02/11 12:16:56;;;;;;;18.65;8.20;;;9.90;99.90;;;;;;5005937;28;20022;-79
2024/02/11 12:19:25;;;;;;;29.33;9.38;;;9.90;99.90;;;;;;5004208;28;20022;-78
2024/02/11 12:21:51;;;;;;;23.10;8.30;;;9.90;99.90;;;;;;4999550;28;20064;-78
2024/02/11 12:24:16;;;;;;;25.70;8.80;;;9.90;99.90;;;;;;5007115;28;20026;-78
2024/02/11 12:26:42;;;;;;;17.55;8.00;;;9.90;99.90;;;;;;4989748;28;20037;-78
2024/02/11 12:29:08;;;;;;;21.73;8.20;;;9.90;99.90;;;;;;5005919;28;20030;-78
2024/02/11 12:31:35;;;;;;;23.95;8.95;;;9.90;99.90;;;;;;4978289;28;20038;-79
2024/02/11 12:34:01;;;;;;;17.85;8.32;;;10.00;99.90;;;;;;5005575;28;20040;-78